Aviation Digital Data Service (ADDS)

Output produced by METARs form (1822 UTC 22 November 2017)
found at http://www.aviationweather.gov/adds/metars/
 
TAF GBYD 221730Z 2218/2324 36008KT CAVOK